createdAt,value
2018-11-07T00:01:40.272Z,10.13
2018-11-07T00:04:17.697Z,13.75
2018-11-07T00:06:46.898Z,15.80
2018-11-07T00:09:17.168Z,14.98
2018-11-07T00:11:46.205Z,14.65
2018-11-07T00:14:15.580Z,11.70
2018-11-07T00:16:45.042Z,13.95
2018-11-07T00:19:13.870Z,16.37
2018-11-07T00:21:42.819Z,12.53
2018-11-07T00:24:12.398Z,14.65
2018-11-07T00:29:17.361Z,12.75
2018-11-07T00:31:47.284Z,11.95
2018-11-07T00:34:17.334Z,14.87
2018-11-07T00:36:46.908Z,13.43
2018-11-07T00:39:16.821Z,12.80
2018-11-07T00:41:46.161Z,10.32
2018-11-07T00:44:15.428Z,13.93
2018-11-07T00:46:45.051Z,17.02
2018-11-07T00:49:13.751Z,11.12
2018-11-07T00:51:43.165Z,14.95
2018-11-07T00:54:12.036Z,14.55
2018-11-07T00:59:20.811Z,15.88
2018-11-07T01:01:49.819Z,10.58
2018-11-07T01:04:19.156Z,15.53
2018-11-07T01:06:48.805Z,12.43
2018-11-07T01:09:17.994Z,15.43
2018-11-07T01:11:50.533Z,12.88
2018-11-07T01:14:19.518Z,11.60
2018-11-07T01:16:55.104Z,14.25
2018-11-07T01:19:25.044Z,13.35
2018-11-07T01:21:53.745Z,12.33
2018-11-07T01:24:23.547Z,13.83
2018-11-07T01:26:52.677Z,12.68
2018-11-07T01:29:21.781Z,13.50
2018-11-07T01:31:50.534Z,12.82
2018-11-07T01:34:22.303Z,13.38
2018-11-07T01:36:50.939Z,11.73
2018-11-07T01:39:21.371Z,13.13
2018-11-07T01:41:50.642Z,13.75
2018-11-07T01:44:20.000Z,13.93
2018-11-07T01:46:48.477Z,11.75
2018-11-07T01:49:17.232Z,15.38
2018-11-07T01:51:46.053Z,10.75
2018-11-07T01:54:14.916Z,11.78
2018-11-07T01:56:44.001Z,14.05
2018-11-07T01:59:12.587Z,12.28
2018-11-07T02:01:41.261Z,9.83
2018-11-07T02:04:09.947Z,12.07
2018-11-07T02:06:38.547Z,14.80
2018-11-07T02:09:08.997Z,10.70
2018-11-07T02:11:37.911Z,10.48
2018-11-07T02:14:07.040Z,12.07
2018-11-07T02:16:35.620Z,13.88
2018-11-07T02:19:04.888Z,12.55
2018-11-07T02:21:33.573Z,14.75
2018-11-07T02:24:02.131Z,14.73
2018-11-07T02:26:30.799Z,16.65
2018-11-07T02:28:59.539Z,14.23
2018-11-07T02:31:29.862Z,13.03
2018-11-07T02:33:58.589Z,16.32
2018-11-07T02:36:35.460Z,11.53
2018-11-07T02:39:29.889Z,15.70
2018-11-07T02:41:59.426Z,15.98
2018-11-07T02:44:28.198Z,17.85
2018-11-07T02:46:57.218Z,15.15
2018-11-07T02:49:26.021Z,16.75
2018-11-07T02:51:54.670Z,14.58
2018-11-07T02:54:23.370Z,14.05
2018-11-07T02:56:52.485Z,17.73
2018-11-07T02:59:21.318Z,13.50
2018-11-07T03:01:50.267Z,14.05
2018-11-07T03:04:25.527Z,12.18
2018-11-07T03:06:55.841Z,13.68
2018-11-07T03:09:24.592Z,17.23
2018-11-07T03:11:53.308Z,14.28
2018-11-07T03:14:22.210Z,13.40
2018-11-07T03:16:51.136Z,16.10
2018-11-07T03:19:19.750Z,17.48
2018-11-07T03:21:48.428Z,16.48
2018-11-07T03:24:17.090Z,17.77
2018-11-07T03:26:45.666Z,13.15
2018-11-07T03:29:14.302Z,13.85
2018-11-07T03:31:42.983Z,17.82
2018-11-07T03:34:11.675Z,14.43
2018-11-07T03:36:40.273Z,15.58
2018-11-07T03:39:11.088Z,17.92
2018-11-07T03:41:39.982Z,16.37
2018-11-07T03:44:09.769Z,19.70
2018-11-07T03:46:38.457Z,14.98
2018-11-07T03:49:07.220Z,14.33
2018-11-07T03:51:36.015Z,12.07
2018-11-07T03:54:04.910Z,15.20
2018-11-07T03:56:33.541Z,16.32
2018-11-07T03:59:02.729Z,13.62
2018-11-07T04:01:31.531Z,16.65
2018-11-07T04:04:00.140Z,15.95
2018-11-07T04:06:29.001Z,13.50
2018-11-07T04:08:58.127Z,12.65
2018-11-07T04:11:27.566Z,16.00
2018-11-07T04:13:56.690Z,13.50
2018-11-07T04:16:25.365Z,11.20
2018-11-07T04:18:54.844Z,9.30
2018-11-07T04:21:23.229Z,12.35
2018-11-07T04:23:56.706Z,14.20
2018-11-07T04:26:25.109Z,13.10
2018-11-07T04:28:53.457Z,13.85
2018-11-07T04:31:21.901Z,13.03
2018-11-07T04:33:50.631Z,12.05
2018-11-07T04:36:19.084Z,12.05
2018-11-07T04:38:48.221Z,12.40
2018-11-07T04:41:16.780Z,12.58
2018-11-07T04:43:45.266Z,13.62
2018-11-07T04:46:13.953Z,15.18
2018-11-07T04:48:42.799Z,11.63
2018-11-07T04:51:11.293Z,10.40
2018-11-07T04:53:39.752Z,9.10
2018-11-07T04:56:08.291Z,10.70
2018-11-07T04:58:36.908Z,11.93
2018-11-07T05:01:05.932Z,11.45
2018-11-07T05:03:34.505Z,10.68
2018-11-07T05:06:03.028Z,12.93
2018-11-07T05:08:31.763Z,10.28
2018-11-07T05:11:02.203Z,11.57
2018-11-07T05:13:30.487Z,8.55
2018-11-07T05:15:58.857Z,13.43
2018-11-07T05:18:27.078Z,11.40
2018-11-07T05:20:55.447Z,9.53
2018-11-07T05:23:23.698Z,11.30
2018-11-07T05:25:52.139Z,8.65
2018-11-07T05:28:20.442Z,9.40
2018-11-07T05:30:48.747Z,9.45
2018-11-07T05:33:17.240Z,11.08
2018-11-07T05:35:45.511Z,10.48
2018-11-07T05:38:14.372Z,14.80
2018-11-07T05:40:42.680Z,9.55
2018-11-07T05:43:10.960Z,11.93
2018-11-07T05:45:39.261Z,9.43
2018-11-07T05:48:07.608Z,8.58
2018-11-07T05:50:36.033Z,11.78
2018-11-07T05:53:04.672Z,9.25
2018-11-07T05:55:33.214Z,13.30
2018-11-07T05:58:01.479Z,12.37
2018-11-07T06:00:29.988Z,10.98
2018-11-07T06:02:58.379Z,13.15
2018-11-07T06:05:26.682Z,11.97
2018-11-07T06:07:54.901Z,10.75
2018-11-07T06:10:23.338Z,12.58
2018-11-07T06:12:51.747Z,13.55
2018-11-07T06:15:20.095Z,11.20
2018-11-07T06:17:48.483Z,12.37
2018-11-07T06:20:16.850Z,12.18
2018-11-07T06:22:45.592Z,12.07
2018-11-07T06:25:14.025Z,14.03
2018-11-07T06:27:42.520Z,11.53
2018-11-07T06:30:14.055Z,10.68
2018-11-07T06:32:42.617Z,11.45
2018-11-07T06:35:11.403Z,9.53
2018-11-07T06:37:40.193Z,17.55
2018-11-07T06:40:10.242Z,13.68
2018-11-07T06:42:38.709Z,10.55
2018-11-07T06:45:09.257Z,11.48
2018-11-07T06:47:37.928Z,11.78
2018-11-07T06:50:10.532Z,13.35
2018-11-07T06:52:39.115Z,11.33
2018-11-07T06:55:10.060Z,12.58
2018-11-07T06:57:39.187Z,11.55
2018-11-07T07:00:15.150Z,12.45
2018-11-07T07:02:44.276Z,12.28
2018-11-07T07:05:14.496Z,16.37
2018-11-07T07:07:43.009Z,17.75
2018-11-07T07:10:15.624Z,13.48
2018-11-07T07:12:44.392Z,10.28
2018-11-07T07:15:14.526Z,10.80
2018-11-07T07:17:43.290Z,16.90
2018-11-07T07:20:23.860Z,12.43
2018-11-07T07:22:52.509Z,15.72
2018-11-07T07:25:29.200Z,18.52
2018-11-07T07:27:57.576Z,10.23
2018-11-07T07:30:27.847Z,13.72
2018-11-07T07:36:13.175Z,15.58
2018-11-07T07:38:46.572Z,12.47
2018-11-07T08:26:36.965Z,19.27
2018-11-07T08:29:05.689Z,16.00
2018-11-07T08:31:34.229Z,18.73
2018-11-07T08:34:04.792Z,14.55
2018-11-07T08:36:33.148Z,16.80
2018-11-07T08:39:01.926Z,20.30
2018-11-07T08:41:30.320Z,16.15
2018-11-07T08:43:58.905Z,17.87
2018-11-07T08:46:27.167Z,16.70
2018-11-07T08:48:56.262Z,15.78
2018-11-07T08:51:24.506Z,18.82
2018-11-07T08:53:52.874Z,20.57
2018-11-07T08:56:21.204Z,13.60
2018-11-07T08:58:49.597Z,12.65
2018-11-07T09:01:18.019Z,14.73
2018-11-07T09:03:46.385Z,21.90
2018-11-07T09:06:14.771Z,18.87
2018-11-07T09:08:43.142Z,16.12
2018-11-07T09:11:11.842Z,12.70
2018-11-07T09:13:40.273Z,16.30
2018-11-07T09:16:08.785Z,14.03
2018-11-07T09:18:37.070Z,15.10
2018-11-07T09:21:05.626Z,17.23
2018-11-07T09:23:34.203Z,16.60
2018-11-07T09:26:02.545Z,18.82
2018-11-07T09:28:30.909Z,17.07
2018-11-07T09:30:59.275Z,20.85
2018-11-07T09:33:27.680Z,16.75
2018-11-07T09:35:55.975Z,19.45
2018-11-07T09:38:24.583Z,27.40
2018-11-07T09:40:52.950Z,19.02
2018-11-07T09:43:21.503Z,27.48
2018-11-07T09:45:53.681Z,28.73
2018-11-07T09:48:24.728Z,28.17
2018-11-07T09:50:52.941Z,30.95
2018-11-07T09:53:21.351Z,25.35
2018-11-07T09:55:49.747Z,27.05
2018-11-07T09:58:18.131Z,26.90
2018-11-07T10:00:46.520Z,25.45
2018-11-07T10:03:14.947Z,30.12
2018-11-07T10:05:43.400Z,26.57
2018-11-07T10:08:11.854Z,24.50
2018-11-07T10:10:40.227Z,20.52
2018-11-07T10:13:08.750Z,22.82
2018-11-07T10:15:37.076Z,21.30
2018-11-07T10:18:05.519Z,24.02
2018-11-07T10:20:33.955Z,24.37
2018-11-07T10:23:02.469Z,21.35
2018-11-07T10:25:30.873Z,24.32
2018-11-07T10:27:59.460Z,19.75
2018-11-07T10:30:27.905Z,27.02
2018-11-07T10:32:56.246Z,26.65
2018-11-07T10:35:24.624Z,21.85
2018-11-07T10:37:52.932Z,25.70
2018-11-07T10:40:22.588Z,21.27
2018-11-07T10:42:51.008Z,21.52
2018-11-07T10:45:19.606Z,22.60
2018-11-07T10:47:48.949Z,21.40
2018-11-07T10:50:18.288Z,25.85
2018-11-07T10:52:47.139Z,18.27
2018-11-07T10:55:16.235Z,20.90
2018-11-07T11:00:34.634Z,17.70
2018-11-07T11:03:09.369Z,17.73
2018-11-07T11:05:39.004Z,10.98
2018-11-07T11:08:07.683Z,12.30
2018-11-07T11:10:36.246Z,10.95
2018-11-07T11:13:05.022Z,6.25
2018-11-07T11:15:33.373Z,9.28
2018-11-07T11:18:02.207Z,6.78
2018-11-07T11:20:31.034Z,9.13
2018-11-07T11:22:59.549Z,5.25
2018-11-07T11:25:28.104Z,6.55
2018-11-07T11:27:56.592Z,5.05
2018-11-07T11:30:25.326Z,5.40
2018-11-07T11:32:55.880Z,6.50
2018-11-07T11:35:24.270Z,8.23
2018-11-07T11:37:52.844Z,9.13
2018-11-07T11:40:21.275Z,9.15
2018-11-07T11:42:49.714Z,11.38
2018-11-07T11:45:18.260Z,5.42
2018-11-07T11:47:46.847Z,8.03
2018-11-07T11:50:16.555Z,6.58
2018-11-07T11:52:45.992Z,8.45
2018-11-07T11:55:14.621Z,7.50
2018-11-07T11:57:43.300Z,7.65
2018-11-07T12:00:15.088Z,7.75
2018-11-07T12:02:43.992Z,8.18
2018-11-07T12:05:13.411Z,7.80
2018-11-07T12:07:42.090Z,7.28
2018-11-07T12:10:18.790Z,9.50
2018-11-07T12:12:51.624Z,10.60
2018-11-07T12:15:21.281Z,10.53
2018-11-07T12:17:50.864Z,9.63
2018-11-07T12:20:21.157Z,5.80
2018-11-07T12:22:49.872Z,7.92
2018-11-07T12:25:18.979Z,7.37
2018-11-07T12:27:47.488Z,8.63
2018-11-07T12:30:18.618Z,9.70
2018-11-07T12:32:48.129Z,6.70
2018-11-07T12:35:17.980Z,6.28
2018-11-07T12:37:46.769Z,10.32
2018-11-07T12:40:16.262Z,9.88
2018-11-07T12:42:44.685Z,12.78
2018-11-07T12:45:14.210Z,11.73
2018-11-07T12:47:42.650Z,10.30
2018-11-07T12:50:18.015Z,15.05
2018-11-07T12:52:46.815Z,5.90
2018-11-07T12:55:16.183Z,7.30
2018-11-07T12:57:44.804Z,11.83
2018-11-07T13:00:24.798Z,11.10
2018-11-07T13:02:53.256Z,9.00
2018-11-07T13:05:22.512Z,9.90
2018-11-07T13:07:51.688Z,6.78
2018-11-07T13:10:21.088Z,8.55
2018-11-07T13:12:50.097Z,8.38
2018-11-07T13:15:18.980Z,8.80
2018-11-07T13:17:49.185Z,6.90
2018-11-07T13:20:21.150Z,6.87
2018-11-07T13:22:50.869Z,6.28
2018-11-07T13:25:20.169Z,6.37
2018-11-07T13:27:48.756Z,8.05
2018-11-07T13:30:19.217Z,8.55
2018-11-07T13:32:47.733Z,9.83
2018-11-07T13:35:16.831Z,9.90
2018-11-07T13:37:46.033Z,8.27
2018-11-07T13:40:16.741Z,14.18
2018-11-07T13:42:45.217Z,10.50
2018-11-07T13:45:14.904Z,6.17
2018-11-07T13:47:44.548Z,10.95
2018-11-07T13:50:13.940Z,13.18
2018-11-07T13:52:42.431Z,7.42
2018-11-07T13:55:12.041Z,12.45
2018-11-07T13:57:40.998Z,7.90
2018-11-07T14:00:12.552Z,9.38
2018-11-07T14:02:41.080Z,9.38
2018-11-07T14:05:10.768Z,7.85
2018-11-07T14:07:39.664Z,7.70
2018-11-07T14:10:11.732Z,8.50
2018-11-07T14:12:40.566Z,6.65
2018-11-07T14:15:11.882Z,9.40
2018-11-07T14:17:40.417Z,9.33
2018-11-07T14:20:09.132Z,13.88
2018-11-07T14:22:38.022Z,11.10
2018-11-07T14:25:08.350Z,13.95
2018-11-07T14:30:22.051Z,5.80
2018-11-07T14:32:57.757Z,7.62
2018-11-07T14:35:26.424Z,8.70
2018-11-07T14:37:55.580Z,10.82
2018-11-07T14:40:24.440Z,8.80
2018-11-07T14:42:53.887Z,7.70
2018-11-07T14:45:22.510Z,8.33
2018-11-07T14:47:51.093Z,8.97
2018-11-07T14:50:19.548Z,12.33
2018-11-07T14:52:47.987Z,7.45
2018-11-07T14:55:16.599Z,8.63
2018-11-07T14:57:45.742Z,12.50
2018-11-07T15:00:15.501Z,12.55
2018-11-07T15:02:44.523Z,9.48
2018-11-07T15:05:14.649Z,10.70
2018-11-07T15:07:43.958Z,11.60
2018-11-07T15:10:13.645Z,10.85
2018-11-07T15:12:42.329Z,8.75
2018-11-07T15:15:12.836Z,11.08
2018-11-07T15:17:42.502Z,11.25
2018-11-07T15:20:12.307Z,15.63
2018-11-07T15:22:40.750Z,12.13
2018-11-07T15:25:10.294Z,10.43
2018-11-07T15:27:42.142Z,8.33
2018-11-07T15:30:12.123Z,14.05
2018-11-07T15:32:41.433Z,8.13
2018-11-07T15:35:10.407Z,10.95
2018-11-07T15:37:39.524Z,10.25
2018-11-07T15:40:14.115Z,9.68
2018-11-07T15:42:43.323Z,11.03
2018-11-07T15:45:18.483Z,9.35
2018-11-07T15:47:47.237Z,12.95
2018-11-07T15:50:21.064Z,16.30
2018-11-07T15:52:56.276Z,10.75
2018-11-07T15:55:24.801Z,13.25
2018-11-07T15:57:53.604Z,9.50
2018-11-07T16:00:21.881Z,15.03
2018-11-07T16:02:50.321Z,9.10
2018-11-07T16:05:18.766Z,8.60
2018-11-07T16:07:47.520Z,12.70
2018-11-07T16:10:17.359Z,12.20
2018-11-07T16:12:46.583Z,12.53
2018-11-07T16:15:17.658Z,11.00
2018-11-07T16:17:46.177Z,10.98
2018-11-07T16:20:16.195Z,11.03
2018-11-07T16:22:45.511Z,9.90
2018-11-07T16:25:14.186Z,9.90
2018-11-07T16:27:43.786Z,11.43
2018-11-07T16:30:13.755Z,8.88
2018-11-07T16:32:42.277Z,9.03
2018-11-07T16:35:12.428Z,8.33
2018-11-07T16:37:41.384Z,10.18
2018-11-07T16:40:12.311Z,16.90
2018-11-07T16:42:42.697Z,11.80
2018-11-07T16:45:13.509Z,11.25
2018-11-07T16:47:42.175Z,16.02
2018-11-07T16:50:12.397Z,10.50
2018-11-07T16:52:41.100Z,12.95
2018-11-07T16:55:10.125Z,12.28
2018-11-07T16:57:40.325Z,7.37
2018-11-07T17:00:13.143Z,10.60
2018-11-07T17:02:42.303Z,14.13
2018-11-07T17:05:11.625Z,15.88
2018-11-07T17:07:40.379Z,12.73
2018-11-07T17:10:11.233Z,6.30
2018-11-07T17:12:39.795Z,12.78
2018-11-07T17:15:08.804Z,15.03
2018-11-07T17:17:37.807Z,7.80
2018-11-07T17:20:09.012Z,15.65
2018-11-07T17:22:38.448Z,11.50
2018-11-07T17:25:19.258Z,8.65
2018-11-07T17:27:52.376Z,11.30
2018-11-07T17:30:21.968Z,10.28
2018-11-07T17:32:50.580Z,13.95
2018-11-07T17:35:23.772Z,13.83
2018-11-07T17:37:54.610Z,12.33
2018-11-07T17:40:23.770Z,8.28
2018-11-07T17:42:54.109Z,10.30
2018-11-07T17:45:24.556Z,12.25
2018-11-07T17:47:53.109Z,10.65
2018-11-07T17:50:22.757Z,13.58
2018-11-07T17:52:53.451Z,14.03
2018-11-07T17:55:23.422Z,15.88
2018-11-07T17:57:54.107Z,14.83
2018-11-07T18:00:31.680Z,8.80
2018-11-07T18:03:01.965Z,16.25
2018-11-07T18:05:30.479Z,10.05
2018-11-07T18:07:59.669Z,9.48
2018-11-07T18:10:28.769Z,16.48
2018-11-07T18:12:57.352Z,11.20
2018-11-07T18:15:28.267Z,9.23
2018-11-07T18:17:57.922Z,12.37
2018-11-07T18:20:27.104Z,18.90
2018-11-07T18:22:55.518Z,7.35
2018-11-07T18:25:24.440Z,12.25
2018-11-07T18:27:52.824Z,14.93
2018-11-07T18:30:21.218Z,15.15
2018-11-07T18:32:49.778Z,8.85
2018-11-07T18:35:19.512Z,13.43
2018-11-07T18:37:47.652Z,7.75
2018-11-07T18:40:18.873Z,8.65
2018-11-07T18:42:47.737Z,8.53
2018-11-07T18:45:17.367Z,8.75
2018-11-07T18:47:47.193Z,13.35
2018-11-07T18:50:17.588Z,14.70
2018-11-07T18:52:52.993Z,10.15
2018-11-07T18:55:21.275Z,9.38
2018-11-07T18:57:49.521Z,10.58
2018-11-07T19:00:19.362Z,14.15
2018-11-07T19:02:49.530Z,11.15
2018-11-07T19:05:18.207Z,12.43
2018-11-07T19:07:46.680Z,15.20
2018-11-07T19:10:17.409Z,11.48
2018-11-07T19:12:46.618Z,12.37
2018-11-07T19:15:49.929Z,10.98
2018-11-07T19:18:18.460Z,11.73
2018-11-07T19:20:47.046Z,7.45
2018-11-07T19:23:15.906Z,9.48
2018-11-07T19:25:44.593Z,16.82
2018-11-07T19:28:13.552Z,9.40
2018-11-07T19:30:42.155Z,16.97
2018-11-07T19:33:10.752Z,8.75
2018-11-07T19:35:39.506Z,10.50
2018-11-07T19:38:07.974Z,17.77
2018-11-07T19:40:36.529Z,11.05
2018-11-07T19:43:05.117Z,6.85
2018-11-07T19:45:33.502Z,11.30
2018-11-07T19:48:01.824Z,8.88
2018-11-07T19:50:30.188Z,12.25
2018-11-07T19:52:58.578Z,9.18
2018-11-07T19:55:26.916Z,10.50
2018-11-07T19:58:03.166Z,14.25
2018-11-07T20:00:32.141Z,11.80
2018-11-07T20:03:00.925Z,11.18
2018-11-07T20:05:32.401Z,14.85
2018-11-07T20:08:00.915Z,10.10
2018-11-07T20:10:29.528Z,9.18
2018-11-07T20:12:58.231Z,8.88
2018-11-07T20:15:29.450Z,13.75
2018-11-07T20:17:58.006Z,6.92
2018-11-07T20:20:27.945Z,11.65
2018-11-07T20:22:56.355Z,8.43
2018-11-07T20:25:26.542Z,7.33
2018-11-07T20:27:54.818Z,11.88
2018-11-07T20:30:23.295Z,12.95
2018-11-07T20:32:51.620Z,7.62
2018-11-07T20:35:29.535Z,11.57
2018-11-07T20:37:58.269Z,10.10
2018-11-07T20:40:26.905Z,11.63
2018-11-07T20:43:00.191Z,12.93
2018-11-07T20:45:28.875Z,14.40
2018-11-07T20:47:58.873Z,11.68
2018-11-07T20:50:27.861Z,11.18
2018-11-07T20:52:56.956Z,23.92
2018-11-07T20:55:25.754Z,9.93
2018-11-07T20:57:54.404Z,10.45
2018-11-07T21:00:24.140Z,11.18
2018-11-07T21:02:53.112Z,7.53
2018-11-07T21:05:28.428Z,9.23
2018-11-07T21:07:58.114Z,10.78
2018-11-07T21:10:26.713Z,11.22
2018-11-07T21:12:56.812Z,9.40
2018-11-07T21:15:28.781Z,9.75
2018-11-07T21:17:59.920Z,10.72
2018-11-07T21:20:28.489Z,12.33
2018-11-07T21:22:56.861Z,8.53
2018-11-07T21:25:25.276Z,12.47
2018-11-07T21:27:54.193Z,8.90
2018-11-07T21:44:06.787Z,8.93
2018-11-07T21:46:35.317Z,9.10
2018-11-07T21:49:05.297Z,9.30
2018-11-07T21:51:34.323Z,8.05
2018-11-07T21:54:03.147Z,9.90
2018-11-07T21:56:32.131Z,10.05
2018-11-07T21:59:01.598Z,10.48
2018-11-07T22:01:30.144Z,14.98
2018-11-07T22:03:58.636Z,13.93
2018-11-07T22:06:26.993Z,9.48
2018-11-07T22:08:57.436Z,10.00
2018-11-07T22:11:25.763Z,12.05
2018-11-07T22:13:54.054Z,12.58
2018-11-07T22:16:22.405Z,14.40
2018-11-07T22:18:50.651Z,11.83
2018-11-07T22:21:19.022Z,10.05
2018-11-07T22:23:47.352Z,11.68
2018-11-07T22:26:15.749Z,10.00
2018-11-07T22:28:44.318Z,16.77
2018-11-07T22:31:12.614Z,14.68
2018-11-07T22:33:40.865Z,11.03
2018-11-07T22:36:15.988Z,10.85
2018-11-07T22:38:44.339Z,6.47
2018-11-07T22:41:12.685Z,10.98
2018-11-07T22:43:41.015Z,9.08
2018-11-07T22:46:10.394Z,9.58
2018-11-07T22:48:38.662Z,36.08
2018-11-07T22:51:07.007Z,15.13
2018-11-07T22:53:35.521Z,13.28
2018-11-07T22:56:03.895Z,10.55
2018-11-07T22:58:32.333Z,15.18
2018-11-07T23:01:06.370Z,9.05
2018-11-07T23:03:34.838Z,13.15
2018-11-07T23:06:03.599Z,10.35
2018-11-07T23:08:31.925Z,10.65
2018-11-07T23:11:00.565Z,7.92
2018-11-07T23:13:30.960Z,9.40
2018-11-07T23:15:59.846Z,9.93
2018-11-07T23:18:34.979Z,12.50
2018-11-07T23:21:03.939Z,10.20
2018-11-07T23:23:32.357Z,14.23
2018-11-07T23:26:01.070Z,10.82
2018-11-07T23:28:32.742Z,9.28
2018-11-07T23:31:04.180Z,8.30
2018-11-07T23:33:36.924Z,8.35
2018-11-07T23:36:06.302Z,7.42
2018-11-07T23:38:35.805Z,6.30
2018-11-07T23:41:05.991Z,7.53
2018-11-07T23:43:35.840Z,10.88
2018-11-07T23:46:05.653Z,6.83
2018-11-07T23:48:37.323Z,6.53
2018-11-07T23:51:06.961Z,8.20
2018-11-07T23:53:37.889Z,9.25
2018-11-07T23:56:06.772Z,8.13
2018-11-07T23:58:38.419Z,9.58
